Herrick, South Dakota
Current Conditions -  °F | °C
As of 5:53 AM on Saturday 25 Oct 2014 (Local Time) from KICR Reporting Station
Clear Clear  
Wind Chill: 47°   Ceiling: Unl
Heat Index: 47°   Visibility: 10mi
Dew Point: 35°   Wind: 3mph
Humidity: 63%   Direction: 280°W
Pressure: 30.13"   Gusts: NA
Location:  43.11°N, 99.19°W
Report Text: KICR 251053Z AUTO 28003KT 10SM CLR 08/02 A3013 RMK AO2 SLP196 T00830017 $
Loading
Personal Weather Stations






























Interactive Weather Map
Tropical Storm Tracking
New forecast layout! Learn more

10-Day Weather Forecast

Advertisements
Track Severe Weather on mobile